Time;durP1;ratioP1;P1;durP2;ratioP2;P2;SDS_P1;SDS_P2;PMS_P1;PMS_P2;Temp;Humidity;BMP_temperature;BMP_pressure;BME280_temperature;BME280_humidity;BME280_pressure;Samples;Min_cycle;Max_cycle;Signal;HPM_P1;HPM_P2
2021/03/11 00:02:07;;;;;;;7.93;5.90;;;9.10;84.30;;;;;;6194500;28;20093;-80
2021/03/11 00:05:10;;;;;;;7.72;5.15;;;9.00;84.90;;;;;;6162061;28;20031;-80
2021/03/11 00:08:11;;;;;;;;;;;9.00;66.30;;;;;;6179187;28;20026;-82
2021/03/11 00:11:11;;;;;;;8.52;4.85;;;8.90;85.10;;;;;;6194563;28;19917;-82
2021/03/11 00:14:12;;;;;;;7.45;5.38;;;;;;;;;;6194302;28;20393;-80
2021/03/11 00:17:13;;;;;;;7.18;4.70;;;9.00;84.10;;;;;;6193434;28;20126;-82
2021/03/11 00:20:15;;;;;;;6.80;4.63;;;9.00;65.60;;;;;;6161992;28;20030;-81
2021/03/11 00:23:16;;;;;;;6.65;4.80;;;8.70;70.60;;;;;;6178544;28;20440;-80
2021/03/11 00:26:17;;;;;;;7.95;4.40;;;;;;;;;;6162056;28;20026;-79
2021/03/11 00:29:18;;;;;;;5.78;4.35;;;9.10;86.20;;;;;;6194221;28;20535;-79
2021/03/11 00:32:19;;;;;;;9.73;4.38;;;;;;;;;;6161406;28;20027;-80
2021/03/11 00:35:20;;;;;;;7.28;4.07;;;9.30;92.30;;;;;;6194211;28;20078;-82
2021/03/11 00:38:21;;;;;;;8.35;4.82;;;;;;;;;;6178080;28;20027;-80
2021/03/11 00:41:21;;;;;;;6.15;3.85;;;9.80;91.10;;;;;;6193692;28;20157;-82
2021/03/11 00:44:22;;;;;;;8.63;4.70;;;9.90;91.10;;;;;;6177634;28;20031;-80
2021/03/11 00:47:23;;;;;;;6.43;4.93;;;;;;;;;;6193475;28;20027;-80
2021/03/11 00:50:23;;;;;;;8.43;5.22;;;9.90;91.40;;;;;;6177811;28;20069;-82
2021/03/11 00:53:24;;;;;;;8.68;5.90;;;9.90;77.10;;;;;;6177382;28;20034;-80
2021/03/11 00:56:25;;;;;;;10.32;6.45;;;9.70;79.90;;;;;;6193093;28;20094;-80
2021/03/11 00:59:25;;;;;;;14.32;8.02;;;9.60;62.50;;;;;;6193293;28;20117;-80
2021/03/11 01:02:26;;;;;;;13.75;7.65;;;9.70;60.80;;;;;;6177013;28;20034;-81
2021/03/11 01:05:28;;;;;;;12.25;8.20;;;9.70;61.60;;;;;;6161215;28;20065;-80
2021/03/11 01:08:28;;;;;;;11.80;8.23;;;9.70;60.60;;;;;;6177396;28;20057;-80
2021/03/11 01:11:29;;;;;;;11.68;8.23;;;9.70;60.20;;;;;;6193208;28;20062;-80
2021/03/11 01:14:30;;;;;;;11.07;7.63;;;9.70;60.00;;;;;;6176655;28;20077;-81
2021/03/11 01:17:30;;;;;;;13.88;7.53;;;9.80;59.90;;;;;;6192962;28;20465;-82
2021/03/11 01:20:31;;;;;;;12.13;7.82;;;;;;;;;;6193150;28;20077;-80
2021/03/11 01:23:32;;;;;;;13.82;7.82;;;9.80;56.30;;;;;;6192798;28;20050;-80
2021/03/11 01:26:33;;;;;;;11.10;7.22;;;9.80;60.20;;;;;;6192865;28;20031;-82
2021/03/11 01:29:33;;;;;;;14.38;9.10;;;9.90;60.00;;;;;;6193008;28;20037;-79
2021/03/11 01:32:34;;;;;;;10.63;7.28;;;9.90;59.30;;;;;;6192816;28;20057;-81
2021/03/11 01:35:35;;;;;;;12.25;8.05;;;9.90;59.70;;;;;;6176565;28;20084;-82
2021/03/11 01:38:35;;;;;;;10.23;6.85;;;10.00;58.90;;;;;;6160698;28;20023;-80
2021/03/11 01:41:36;;;;;;;11.43;7.63;;;9.70;59.20;;;;;;6176537;28;20042;-80
2021/03/11 01:44:37;;;;;;;11.32;7.45;;;;;;;;;;6160648;28;20563;-82
2021/03/11 01:47:37;;;;;;;8.05;6.35;;;10.00;55.90;;;;;;6192664;28;20027;-80
2021/03/11 01:50:38;;;;;;;10.75;6.80;;;10.00;60.00;;;;;;6192977;28;20074;-80
2021/03/11 01:53:39;;;;;;;11.55;7.10;;;10.10;60.50;;;;;;6192662;28;20034;-80
2021/03/11 01:56:39;;;;;;;8.88;6.00;;;10.10;60.60;;;;;;6192485;28;20054;-82
2021/03/11 01:59:40;;;;;;;10.80;6.28;;;10.20;60.60;;;;;;6176261;28;20026;-82
2021/03/11 02:02:42;;;;;;;12.35;6.05;;;10.20;78.80;;;;;;6176460;28;20473;-80
2021/03/11 02:05:42;;;;;;;9.00;6.13;;;10.10;74.90;;;;;;6192450;28;20058;-82
2021/03/11 02:08:43;;;;;;;9.05;6.15;;;10.10;61.30;;;;;;6176488;28;20033;-80
2021/03/11 02:12:02;;;;;;;9.02;6.22;;;10.10;74.40;;;;;;6176435;28;20030;-80
2021/03/11 02:15:03;;;;;;;10.60;6.65;;;10.10;58.00;;;;;;6161868;28;20031;-81
2021/03/11 02:18:09;;;;;;;9.43;7.00;;;9.90;73.00;;;;;;6192523;28;20485;-81
2021/03/11 02:21:20;;;;;;;9.52;7.20;;;10.10;56.70;;;;;;6175910;28;20485;-81
2021/03/11 02:24:59;;;;;;;9.88;6.90;;;10.10;59.20;;;;;;6192530;28;20027;-80
2021/03/11 02:28:11;;;;;;;8.05;6.00;;;10.20;56.40;;;;;;6193781;28;20027;-80
2021/03/11 02:31:12;;;;;;;12.23;5.20;;;;;;;;;;6192297;28;20205;-80
2021/03/11 02:34:17;;;;;;;11.63;6.85;;;10.00;78.60;;;;;;6192195;28;20381;-81
2021/03/11 02:37:44;;;;;;;8.80;5.63;;;9.90;93.20;;;;;;6160629;28;20030;-80
2021/03/11 02:40:44;;;;;;;8.90;5.10;;;9.80;87.80;;;;;;6193456;28;20047;-80
2021/03/11 02:43:48;;;;;;;6.32;4.60;;;9.60;90.90;;;;;;6196523;28;20042;-82
2021/03/11 02:46:49;;;;;;;8.02;4.80;;;9.60;96.50;;;;;;6196683;28;20039;-81
2021/03/11 02:49:50;;;;;;;7.93;5.15;;;;;;;;;;6196394;28;20038;-81
2021/03/11 02:52:52;;;;;;;7.13;4.50;;;;;;;;;;6180481;28;20026;-81
2021/03/11 02:55:52;;;;;;;9.10;4.95;;;9.30;97.10;;;;;;6179798;28;20050;-81
2021/03/11 02:58:53;;;;;;;6.63;4.43;;;9.40;92.80;;;;;;6164074;28;20037;-80
2021/03/11 03:01:54;;;;;;;4.80;4.03;;;;;;;;;;6179820;28;20113;-81
2021/03/11 03:04:56;;;;;;;6.80;4.60;;;9.50;85.20;;;;;;6180030;28;20030;-81
2021/03/11 03:07:56;;;;;;;6.95;4.75;;;9.60;76.50;;;;;;6163991;28;20034;-83
2021/03/11 03:10:57;;;;;;;8.73;4.00;;;9.80;90.70;;;;;;6179759;28;20531;-82
2021/03/11 03:13:58;;;;;;;6.20;4.57;;;11.00;72.50;;;;;;6180082;28;20457;-81
2021/03/11 03:16:59;;;;;;;5.35;3.88;;;;;;;;;;6179529;28;20126;-81
2021/03/11 03:19:59;;;;;;;6.20;4.00;;;9.80;71.20;;;;;;6195622;28;20433;-81
2021/03/11 03:23:03;;;;;;;7.18;4.10;;;9.90;91.10;;;;;;6194138;28;20041;-81
2021/03/11 03:26:04;;;;;;;7.70;4.30;;;9.90;75.20;;;;;;6195614;28;20483;-80
2021/03/11 03:29:05;;;;;;;5.35;3.80;;;9.80;73.80;;;;;;6179493;28;20039;-81
2021/03/11 03:32:06;;;;;;;6.03;4.30;;;9.80;74.50;;;;;;6178942;28;20057;-81
2021/03/11 03:35:08;;;;;;;6.50;4.00;;;9.80;74.20;;;;;;6179295;28;20029;-80
2021/03/11 03:38:09;;;;;;;9.63;4.68;;;;;;;;;;6162956;28;20041;-81
2021/03/11 03:41:10;;;;;;;6.45;4.80;;;9.80;70.20;;;;;;6179299;28;20037;-83
2021/03/11 03:44:11;;;;;;;6.43;4.93;;;9.80;76.30;;;;;;6162625;28;20034;-81
2021/03/11 03:47:12;;;;;;;6.68;4.53;;;9.80;76.20;;;;;;6195237;28;20026;-82
2021/03/11 03:50:12;;;;;;;9.75;4.72;;;9.60;91.40;;;;;;6195047;28;20153;-80
2021/03/11 03:53:19;;;;;;;12.23;4.82;;;9.70;76.20;;;;;;6195218;28;20030;-81
2021/03/11 03:56:34;;;;;;;7.30;5.18;;;9.70;74.60;;;;;;6194613;28;20382;-80
2021/03/11 03:59:35;;;;;;;6.10;4.35;;;9.70;79.30;;;;;;6195248;28;20105;-81
2021/03/11 04:02:37;;;;;;;5.90;4.82;;;9.70;77.90;;;;;;6194763;28;20441;-80
2021/03/11 04:05:37;;;;;;;7.15;4.63;;;9.70;77.30;;;;;;6195089;28;20027;-81
2021/03/11 04:08:40;;;;;;;7.15;4.72;;;9.70;78.80;;;;;;6194298;28;20061;-81
2021/03/11 04:11:44;;;;;;;7.65;4.63;;;9.70;78.60;;;;;;6194676;28;20038;-80
2021/03/11 04:14:45;;;;;;;6.45;4.90;;;9.70;92.00;;;;;;6194420;28;20492;-81
2021/03/11 04:17:46;;;;;;;7.38;4.32;;;9.70;78.30;;;;;;6194160;28;20069;-81
2021/03/11 04:20:46;;;;;;;6.30;4.63;;;9.50;92.70;;;;;;6194456;28;20026;-81
2021/03/11 04:23:47;;;;;;;5.63;3.92;;;;;;;;;;6194287;28;20034;-80
2021/03/11 04:26:48;;;;;;;7.35;4.75;;;9.70;75.60;;;;;;6194465;28;20022;-80
2021/03/11 04:29:49;;;;;;;6.95;4.20;;;9.70;78.90;;;;;;6194331;28;20030;-80
2021/03/11 04:32:50;;;;;;;5.65;4.10;;;9.70;79.70;;;;;;6178250;28;20114;-79
2021/03/11 04:35:51;;;;;;;7.15;4.20;;;9.50;93.20;;;;;;6162128;28;20026;-81
2021/03/11 04:38:52;;;;;;;5.38;4.13;;;9.80;93.50;;;;;;6178201;28;20117;-82
2021/03/11 04:41:53;;;;;;;6.88;4.75;;;9.70;80.20;;;;;;6161606;28;20084;-80
2021/03/11 04:44:53;;;;;;;9.05;4.28;;;9.80;80.20;;;;;;6161457;28;20501;-81
2021/03/11 04:47:54;;;;;;;5.30;3.95;;;9.80;80.50;;;;;;6161914;28;20046;-80
2021/03/11 04:50:55;;;;;;;5.70;4.13;;;9.90;80.30;;;;;;6178130;28;20377;-81
2021/03/11 04:53:55;;;;;;;5.57;4.03;;;9.80;80.20;;;;;;6177525;28;20080;-81
2021/03/11 04:56:57;;;;;;;6.53;3.88;;;;;;;;;;6177572;28;20042;-80
2021/03/11 04:59:57;;;;;;;9.60;4.00;;;9.80;75.40;;;;;;6193887;28;20041;-81
2021/03/11 05:02:58;;;;;;;8.02;3.63;;;10.10;78.00;;;;;;6176403;28;20051;-81
2021/03/11 05:05:59;;;;;;;5.38;3.60;;;10.10;78.30;;;;;;6193744;28;20101;-80
2021/03/11 05:08:59;;;;;;;5.55;3.60;;;10.30;77.70;;;;;;6193698;28;20034;-82
2021/03/11 05:12:00;;;;;;;5.35;3.75;;;9.90;92.10;;;;;;6177486;28;20113;-81
2021/03/11 05:15:01;;;;;;;5.95;3.65;;;10.20;93.80;;;;;;6193445;28;20652;-80
2021/03/11 05:18:01;;;;;;;6.10;4.32;;;10.10;97.90;;;;;;6193400;28;20030;-80
2021/03/11 05:21:02;;;;;;;5.72;3.60;;;10.10;92.10;;;;;;6193770;28;20041;-81
2021/03/11 05:24:03;;;;;;;5.72;3.40;;;10.50;90.50;;;;;;6193280;28;20040;-80
2021/03/11 05:27:04;;;;;;;5.60;3.63;;;9.80;91.10;;;;;;6177072;28;20248;-81
2021/03/11 05:30:06;;;;;;;5.95;3.78;;;10.10;97.20;;;;;;6192857;28;20085;-80
2021/03/11 05:33:07;;;;;;;6.78;3.88;;;;;;;;;;6177203;28;20042;-81
2021/03/11 05:36:08;;;;;;;7.97;3.50;;;10.00;86.80;;;;;;6177152;28;20057;-81
2021/03/11 05:39:09;;;;;;;3.97;3.20;;;;;;;;;;6193070;28;20031;-82
2021/03/11 05:42:11;;;;;;;7.53;4.18;;;10.30;88.90;;;;;;6176463;28;20045;-81
2021/03/11 05:45:11;;;;;;;4.20;3.20;;;10.20;97.20;;;;;;6192757;28;20062;-81
2021/03/11 05:48:15;;;;;;;5.13;3.72;;;10.20;95.60;;;;;;6192587;28;20034;-81
2021/03/11 05:51:16;;;;;;;7.88;3.47;;;10.10;89.10;;;;;;6192589;28;20113;-82
2021/03/11 05:54:17;;;;;;;3.85;3.13;;;;;;;;;;6193034;28;20038;-80
2021/03/11 05:57:18;;;;;;;5.63;4.03;;;10.30;72.10;;;;;;6192785;28;20085;-80
2021/03/11 06:00:20;;;;;;;6.28;3.40;;;10.20;76.60;;;;;;6176907;28;20038;-80
2021/03/11 06:03:21;;;;;;;7.70;3.57;;;10.30;75.70;;;;;;6191387;28;20097;-80
2021/03/11 06:06:22;;;;;;;7.45;4.00;;;10.50;77.40;;;;;;6176924;28;20033;-82
2021/03/11 06:09:23;;;;;;;5.30;4.10;;;;;;;;;;6160722;28;20027;-81
2021/03/11 06:12:24;;;;;;;4.95;3.47;;;10.10;72.90;;;;;;6176731;28;20026;-83
2021/03/11 06:15:31;;;;;;;3.85;3.15;;;10.20;77.60;;;;;;6162001;28;20034;-82
2021/03/11 06:18:32;;;;;;;4.43;3.17;;;10.30;90.60;;;;;;6197614;28;20041;-85
2021/03/11 06:21:33;;;;;;;3.73;2.90;;;10.30;80.00;;;;;;6197470;28;20477;-88
2021/03/11 06:24:43;;;;;;;5.50;3.30;;;10.40;93.00;;;;;;6165200;28;20073;-85
2021/03/11 06:27:56;;;;;;;4.28;3.15;;;10.20;74.80;;;;;;6197051;28;20855;-83
2021/03/11 06:30:57;;;;;;;6.07;3.97;;;10.40;93.10;;;;;;6180000;28;20377;-87
2021/03/11 06:33:59;;;;;;;4.23;3.40;;;10.30;80.30;;;;;;6164891;28;20030;-78
2021/03/11 06:37:47;;;;;;;18.95;4.20;;;10.60;91.60;;;;;;6196931;28;20488;-83
2021/03/11 06:40:53;;;;;;;5.80;3.17;;;11.10;91.00;;;;;;6197012;28;20470;-82
2021/03/11 06:44:00;;;;;;;6.32;3.22;;;10.40;98.70;;;;;;6197201;28;20461;-83
2021/03/11 06:47:12;;;;;;;4.30;3.47;;;10.40;98.50;;;;;;6196852;28;20580;-83
2021/03/11 06:50:13;;;;;;;5.50;3.20;;;;;;;;;;6196968;28;20034;-85
2021/03/11 06:53:13;;;;;;;5.97;3.47;;;10.40;98.40;;;;;;6180637;28;20022;-82
2021/03/11 06:56:18;;;;;;;5.80;3.60;;;10.60;98.60;;;;;;6196473;28;20067;-84
2021/03/11 06:59:19;;;;;;;6.10;3.42;;;;;;;;;;6196697;28;20030;-85
2021/03/11 07:02:20;;;;;;;5.90;3.40;;;10.60;98.40;;;;;;6196236;28;20080;-82
2021/03/11 07:05:23;;;;;;;5.05;3.10;;;10.80;93.20;;;;;;6180056;28;20429;-82
2021/03/11 07:08:23;;;;;;;4.35;3.03;;;11.30;97.40;;;;;;6180243;28;20066;-85
2021/03/11 07:11:24;;;;;;;6.57;3.42;;;10.80;90.20;;;;;;6196602;28;20550;-85
2021/03/11 07:14:26;;;;;;;4.63;2.83;;;;;;;;;;6164700;28;20038;-84
2021/03/11 07:17:26;;;;;;;4.07;3.15;;;11.10;90.10;;;;;;6196638;28;20145;-84
2021/03/11 07:20:28;;;;;;;4.03;3.20;;;11.10;77.30;;;;;;6165060;28;20038;-86
2021/03/11 07:23:29;;;;;;;4.40;3.00;;;;;;;;;;6197627;28;20121;-85
2021/03/11 07:26:30;;;;;;;4.38;2.85;;;11.20;73.50;;;;;;6179378;28;20280;-88
2021/03/11 07:29:30;;;;;;;4.07;3.13;;;11.20;92.60;;;;;;6180062;28;20038;-86
2021/03/11 07:32:32;;;;;;;4.28;2.72;;;11.30;78.10;;;;;;6163720;28;20037;-83
2021/03/11 07:35:33;;;;;;;5.50;3.15;;;;;;;;;;6163518;28;20389;-83
2021/03/11 07:38:37;;;;;;;4.50;2.78;;;11.40;77.90;;;;;;6179754;28;20499;-84
2021/03/11 07:41:38;;;;;;;3.13;2.42;;;11.50;78.40;;;;;;6179318;28;20089;-84
2021/03/11 07:44:39;;;;;;;3.70;2.70;;;11.60;79.30;;;;;;6196048;28;20034;-84
2021/03/11 07:47:40;;;;;;;2.97;2.55;;;11.60;77.80;;;;;;6163091;28;20034;-82
2021/03/11 07:50:42;;;;;;;2.88;2.45;;;11.70;92.80;;;;;;6179483;28;20034;-81
2021/03/11 07:53:43;;;;;;;;;;;11.80;78.50;;;;;;6159178;28;20034;-83
2021/03/11 07:56:44;;;;;;;3.72;2.78;;;;;;;;;;6177768;28;20455;-83
2021/03/11 07:59:45;;;;;;;4.57;2.40;;;12.10;92.50;;;;;;6178963;28;20038;-86
2021/03/11 08:02:52;;;;;;;4.13;2.03;;;12.20;77.20;;;;;;6162126;28;20133;-82
2021/03/11 08:05:52;;;;;;;3.25;2.60;;;12.20;90.90;;;;;;6193054;28;20602;-81
2021/03/11 08:08:54;;;;;;;4.03;2.30;;;;;;;;;;6192778;28;20031;-83
2021/03/11 08:11:54;;;;;;;5.50;2.63;;;12.40;75.00;;;;;;6178187;28;20041;-84
2021/03/11 08:14:59;;;;;;;2.20;2.00;;;12.30;92.00;;;;;;6193387;28;20027;-83
2021/03/11 08:18:02;;;;;;;2.75;2.20;;;12.40;97.80;;;;;;6178489;28;20023;-83
2021/03/11 08:21:26;;;;;;;2.78;2.10;;;12.50;77.10;;;;;;6193783;28;20038;-82
2021/03/11 08:24:43;;;;;;;2.92;2.17;;;12.60;92.90;;;;;;6188983;28;20120;-82
2021/03/11 08:27:44;;;;;;;2.97;2.60;;;12.70;75.70;;;;;;6194375;28;20243;-83
2021/03/11 08:30:50;;;;;;;2.60;2.13;;;12.70;89.40;;;;;;6176539;28;20038;-82
2021/03/11 08:33:50;;;;;;;2.78;2.08;;;12.70;92.60;;;;;;6160422;28;20440;-84
2021/03/11 08:36:52;;;;;;;4.47;3.40;;;12.90;98.60;;;;;;6192750;28;20070;-82
2021/03/11 08:39:53;;;;;;;2.78;1.83;;;13.00;92.60;;;;;;6176855;28;20026;-82
2021/03/11 08:42:53;;;;;;;2.60;1.90;;;13.20;91.70;;;;;;6161556;28;20444;-82
2021/03/11 08:45:54;;;;;;;1.75;1.65;;;;;;;;;;6177289;28;20548;-82
2021/03/11 08:49:00;;;;;;;4.45;1.73;;;13.90;87.20;;;;;;6176160;28;20052;-84
2021/03/11 08:52:01;;;;;;;19.02;4.05;;;;;;;;;;6194287;28;20030;-84
2021/03/11 08:55:34;;;;;;;3.28;2.25;;;15.00;84.80;;;;;;6178035;28;20085;-83
2021/03/11 08:58:35;;;;;;;3.70;2.00;;;;;;;;;;6194095;28;20686;-81
2021/03/11 09:01:52;;;;;;;7.15;2.28;;;15.30;84.20;;;;;;6177842;28;20035;-86
2021/03/11 09:04:53;;;;;;;2.15;1.60;;;15.70;69.40;;;;;;6159334;28;20039;-85
2021/03/11 09:08:10;;;;;;;4.18;1.90;;;15.70;72.70;;;;;;6176703;28;20034;-84
2021/03/11 09:11:13;;;;;;;2.50;1.63;;;15.40;71.30;;;;;;6176354;28;20042;-83
2021/03/11 09:14:13;;;;;;;;;;;15.60;74.20;;;;;;6177795;28;20453;-80
2021/03/11 09:17:19;;;;;;;2.17;1.52;;;15.80;73.30;;;;;;6176333;28;19913;-81
2021/03/11 09:20:20;;;;;;;3.53;1.75;;;15.90;71.00;;;;;;6172768;28;20026;-82
2021/03/11 09:23:32;;;;;;;1.30;1.20;;;15.40;88.80;;;;;;6175767;28;20041;-81
2021/03/11 09:26:34;;;;;;;1.48;1.38;;;14.90;77.50;;;;;;6192821;28;20069;-82
2021/03/11 09:29:34;;;;;;;8.70;2.17;;;14.20;94.00;;;;;;6160555;28;20038;-82
2021/03/11 09:32:36;;;;;;;2.72;1.48;;;15.60;82.30;;;;;;6160020;28;20033;-81
2021/03/11 09:35:37;;;;;;;3.15;1.60;;;13.90;94.50;;;;;;6160557;28;20583;-80
2021/03/11 09:38:38;;;;;;;2.10;1.35;;;14.10;83.40;;;;;;6175865;28;20054;-81
2021/03/11 09:41:38;;;;;;;3.90;1.88;;;13.50;82.10;;;;;;6160158;28;20073;-81
2021/03/11 09:44:43;;;;;;;1.20;1.15;;;13.80;83.70;;;;;;6192316;28;20060;-81
2021/03/11 09:47:44;;;;;;;3.47;1.40;;;13.80;83.10;;;;;;6191201;28;20034;-81
2021/03/11 09:50:52;;;;;;;2.28;1.30;;;14.00;94.80;;;;;;6195381;28;20041;-79
2021/03/11 09:53:58;;;;;;;1.30;1.30;;;14.00;80.00;;;;;;6197604;28;20030;-81
2021/03/11 09:57:01;;;;;;;2.42;1.40;;;14.20;79.20;;;;;;6196907;28;20412;-83
2021/03/11 10:00:02;;;;;;;1.05;1.05;;;14.50;81.10;;;;;;6181312;28;20034;-85
2021/03/11 10:03:02;;;;;;;3.38;1.85;;;14.90;93.50;;;;;;6197686;28;20385;-86
2021/03/11 10:06:07;;;;;;;1.48;1.38;;;14.80;80.60;;;;;;6165067;28;20113;-86
2021/03/11 10:09:09;;;;;;;1.38;1.27;;;15.00;79.50;;;;;;6196290;28;20035;-84
2021/03/11 10:12:10;;;;;;;3.15;1.73;;;14.90;78.30;;;;;;6164381;28;20500;-86
2021/03/11 10:15:11;;;;;;;2.28;2.08;;;14.90;80.50;;;;;;6197499;28;20035;-86
2021/03/11 10:18:12;;;;;;;1.10;1.10;;;15.20;92.90;;;;;;6196070;28;20057;-84
2021/03/11 10:21:13;;;;;;;2.55;1.48;;;15.30;93.20;;;;;;6164576;28;20045;-84
2021/03/11 10:24:14;;;;;;;2.58;1.10;;;;;;;;;;6180275;28;20119;-83
2021/03/11 10:27:24;;;;;;;3.28;1.25;;;15.50;75.10;;;;;;6197392;28;20058;-88
2021/03/11 10:30:28;;;;;;;1.83;1.73;;;15.30;91.40;;;;;;6198184;28;20022;-88
2021/03/11 10:33:28;;;;;;;1.92;1.30;;;15.30;78.70;;;;;;6180887;28;20455;-85
2021/03/11 10:36:30;;;;;;;3.03;1.77;;;;;;;;;;6165125;28;20037;-85
2021/03/11 10:39:30;;;;;;;2.13;1.80;;;15.30;91.20;;;;;;6180922;28;20069;-85
2021/03/11 10:42:45;;;;;;;3.90;3.30;;;15.00;92.80;;;;;;6162132;28;20042;-85
2021/03/11 10:45:45;;;;;;;5.75;2.15;;;15.10;79.20;;;;;;6192663;28;20062;-85
2021/03/11 10:48:50;;;;;;;1.50;1.25;;;14.80;99.70;;;;;;6164910;28;20044;-83
2021/03/11 10:51:58;;;;;;;1.50;1.40;;;15.00;93.50;;;;;;6196854;28;20057;-86
2021/03/11 10:54:59;;;;;;;4.22;2.33;;;14.90;80.60;;;;;;6197054;28;20031;-86
2021/03/11 10:58:00;;;;;;;1.35;1.25;;;14.80;80.90;;;;;;6163535;28;20519;-84
2021/03/11 11:01:06;;;;;;;1.50;1.40;;;14.70;81.50;;;;;;6163083;28;20089;-85
2021/03/11 11:04:07;;;;;;;1.98;1.42;;;14.60;83.10;;;;;;6195423;28;20038;-85
2021/03/11 11:07:08;;;;;;;2.70;2.03;;;14.40;83.50;;;;;;6164132;28;20137;-88
2021/03/11 11:10:09;;;;;;;1.70;1.60;;;14.20;95.10;;;;;;6163760;28;20026;-87
2021/03/11 11:13:10;;;;;;;1.38;1.27;;;14.20;95.00;;;;;;6163895;28;20114;-84
2021/03/11 11:16:11;;;;;;;2.13;1.90;;;13.30;94.40;;;;;;6161929;28;20042;-86
2021/03/11 11:19:11;;;;;;;1.83;1.73;;;13.70;99.90;;;;;;6196911;28;20117;-90
2021/03/11 11:22:12;;;;;;;2.60;1.80;;;13.70;95.40;;;;;;6176323;28;20034;-85
2021/03/11 11:25:13;;;;;;;2.20;1.70;;;;;;;;;;6195567;28;20033;-86
2021/03/11 11:28:14;;;;;;;1.65;1.52;;;13.70;94.90;;;;;;6178917;28;20073;-88
2021/03/11 11:31:14;;;;;;;6.70;2.10;;;13.80;97.00;;;;;;6164015;28;20382;-87
2021/03/11 11:34:15;;;;;;;3.58;2.30;;;13.60;99.90;;;;;;6179468;28;20037;-80
2021/03/11 11:37:16;;;;;;;7.97;2.47;;;14.00;95.80;;;;;;6195344;28;20433;-84
2021/03/11 11:40:17;;;;;;;4.00;2.20;;;;;;;;;;6197117;28;20113;-85
2021/03/11 11:43:18;;;;;;;3.05;2.33;;;14.10;99.90;;;;;;6196328;28;20045;-87
2021/03/11 11:46:19;;;;;;;2.00;1.70;;;;;;;;;;6163623;28;20408;-88
2021/03/11 11:49:20;;;;;;;9.57;5.10;;;13.90;99.90;;;;;;6194046;28;20046;-85
2021/03/11 11:52:21;;;;;;;4.57;2.40;;;;;;;;;;6178333;28;20026;-85
2021/03/11 11:55:22;;;;;;;2.22;1.88;;;;;;;;;;6180871;28;20034;-83
2021/03/11 11:58:23;;;;;;;4.75;3.35;;;13.50;99.90;;;;;;6186951;28;20472;-83
2021/03/11 12:01:24;;;;;;;2.22;2.00;;;;;;;;;;6186610;28;20168;-85
2021/03/11 12:04:25;;;;;;;3.00;1.95;;;;;;;;;;6202866;28;20030;-87
2021/03/11 12:07:25;;;;;;;2.15;1.70;;;13.60;94.00;;;;;;6187109;28;20076;-84
2021/03/11 12:10:26;;;;;;;2.30;2.10;;;13.50;95.30;;;;;;6170683;28;20034;-83
2021/03/11 12:13:27;;;;;;;2.75;2.42;;;;;;;;;;6201692;28;20373;-83
2021/03/11 12:16:28;;;;;;;5.18;2.17;;;13.50;97.20;;;;;;6202675;28;20048;-85
2021/03/11 12:19:29;;;;;;;3.13;2.38;;;;;;;;;;6170942;28;20030;-87
2021/03/11 12:22:30;;;;;;;4.68;2.35;;;13.40;89.30;;;;;;6220250;28;20642;-84
2021/03/11 12:25:30;;;;;;;2.67;2.30;;;13.30;92.00;;;;;;6186278;28;20388;-84
2021/03/11 12:28:31;;;;;;;2.20;1.90;;;13.20;92.90;;;;;;6170099;28;20439;-83
2021/03/11 12:31:31;;;;;;;2.50;2.03;;;13.20;92.80;;;;;;6185936;28;20030;-85
2021/03/11 12:34:32;;;;;;;4.63;2.30;;;13.20;92.70;;;;;;6186354;28;20033;-85
2021/03/11 12:37:33;;;;;;;2.47;2.03;;;13.30;92.20;;;;;;6169801;28;20030;-84
2021/03/11 12:40:33;;;;;;;2.28;2.08;;;13.20;99.20;;;;;;6186257;28;20025;-84
2021/03/11 12:43:34;;;;;;;2.13;2.03;;;13.30;92.00;;;;;;6185773;28;20034;-84
2021/03/11 12:46:35;;;;;;;3.30;2.10;;;13.30;92.10;;;;;;6185527;28;20026;-83
2021/03/11 12:49:36;;;;;;;1.70;1.60;;;;;;;;;;6185839;28;20384;-86
2021/03/11 12:52:36;;;;;;;3.22;2.17;;;13.30;89.90;;;;;;6185039;28;20038;-87
2021/03/11 12:55:38;;;;;;;2.15;1.95;;;;;;;;;;6170007;28;20054;-86
2021/03/11 12:58:39;;;;;;;2.03;1.80;;;13.50;89.60;;;;;;6184894;28;20033;-83
2021/03/11 13:01:40;;;;;;;4.07;2.13;;;13.70;90.70;;;;;;6185494;28;20389;-81
2021/03/11 13:04:40;;;;;;;2.47;2.20;;;13.50;90.70;;;;;;6185541;28;20074;-83
2021/03/11 13:07:41;;;;;;;2.08;1.80;;;13.60;91.20;;;;;;6185224;28;20057;-83
2021/03/11 13:10:42;;;;;;;1.90;1.73;;;13.70;90.90;;;;;;6185463;28;20037;-83
2021/03/11 13:13:43;;;;;;;3.33;1.88;;;13.70;98.40;;;;;;6185388;28;20029;-86
2021/03/11 13:16:43;;;;;;;2.80;1.70;;;13.60;90.90;;;;;;6169577;28;20480;-82
2021/03/11 13:19:44;;;;;;;2.92;2.13;;;13.60;91.20;;;;;;6186073;28;20042;-84
2021/03/11 13:22:45;;;;;;;1.73;1.63;;;13.80;90.90;;;;;;6185317;28;20077;-85
2021/03/11 13:25:45;;;;;;;3.20;2.03;;;13.70;91.10;;;;;;6185037;28;20076;-81
2021/03/11 13:28:46;;;;;;;2.92;1.92;;;13.70;91.40;;;;;;6168934;28;20369;-81
2021/03/11 13:31:47;;;;;;;2.00;1.90;;;13.70;91.30;;;;;;6168982;28;20026;-81
2021/03/11 13:34:47;;;;;;;2.65;2.10;;;13.70;91.80;;;;;;6169259;28;20120;-83
2021/03/11 13:37:48;;;;;;;2.90;2.00;;;13.60;90.80;;;;;;6184747;28;20064;-82
2021/03/11 13:40:49;;;;;;;3.33;2.00;;;13.60;91.40;;;;;;6184947;28;20136;-83
2021/03/11 13:43:50;;;;;;;4.65;2.17;;;14.30;91.40;;;;;;6185098;28;20456;-83
2021/03/11 13:46:52;;;;;;;2.05;1.77;;;13.60;91.90;;;;;;6168718;28;20030;-83
2021/03/11 13:49:53;;;;;;;5.55;2.10;;;;;;;;;;6169359;28;20388;-84
2021/03/11 13:52:53;;;;;;;2.30;2.10;;;13.50;88.80;;;;;;6197914;28;20068;-83
2021/03/11 13:55:54;;;;;;;2.92;2.20;;;13.60;91.50;;;;;;6183579;28;20049;-85
2021/03/11 13:58:55;;;;;;;4.88;2.58;;;13.50;91.90;;;;;;6167908;28;20033;-83
2021/03/11 14:01:56;;;;;;;4.22;2.90;;;13.50;91.90;;;;;;6200980;28;20108;-82
2021/03/11 14:04:57;;;;;;;3.33;2.40;;;13.50;99.90;;;;;;6168449;28;20073;-86
2021/03/11 14:07:58;;;;;;;2.50;2.30;;;13.20;99.90;;;;;;6168642;28;20056;-84
2021/03/11 14:10:58;;;;;;;4.03;2.10;;;13.30;94.00;;;;;;6184045;28;20033;-84
2021/03/11 14:13:59;;;;;;;2.67;2.20;;;13.30;94.60;;;;;;6168169;28;20554;-85
2021/03/11 14:17:01;;;;;;;3.30;2.22;;;12.90;99.90;;;;;;6184718;28;20029;-82
2021/03/11 14:20:02;;;;;;;4.57;2.80;;;13.10;96.40;;;;;;6168187;28;20036;-84
2021/03/11 14:23:03;;;;;;;4.30;2.57;;;13.10;96.70;;;;;;6168767;28;20085;-88
2021/03/11 14:26:03;;;;;;;4.40;2.83;;;12.90;97.20;;;;;;6167939;28;20273;-86
2021/03/11 14:29:05;;;;;;;2.88;2.40;;;;;;;;;;6184841;28;20120;-84
2021/03/11 14:32:05;;;;;;;4.30;1.92;;;12.40;99.90;;;;;;6184202;28;20117;-86
2021/03/11 14:35:07;;;;;;;3.97;2.33;;;12.60;99.20;;;;;;6184834;28;20387;-87
2021/03/11 14:38:08;;;;;;;5.88;2.58;;;12.40;99.10;;;;;;6187908;28;20080;-83
2021/03/11 14:41:09;;;;;;;4.88;2.70;;;12.20;99.90;;;;;;6172496;28;20030;-83
2021/03/11 14:44:09;;;;;;;8.05;3.30;;;12.30;99.90;;;;;;6172605;28;20041;-84
2021/03/11 14:47:10;;;;;;;4.05;2.40;;;11.90;99.90;;;;;;6172684;28;20026;-86
2021/03/11 14:50:11;;;;;;;2.08;1.50;;;11.50;99.90;;;;;;6172542;28;20033;-86
2021/03/11 14:53:12;;;;;;;3.45;1.52;;;11.30;99.90;;;;;;6188094;28;20042;-84
2021/03/11 14:56:13;;;;;;;1.58;1.27;;;11.20;99.90;;;;;;6188223;28;20057;-83
2021/03/11 14:59:13;;;;;;;1.98;1.60;;;11.30;99.90;;;;;;6187959;28;20083;-84
2021/03/11 15:02:14;;;;;;;2.63;1.45;;;11.00;99.90;;;;;;6172152;28;20050;-83
2021/03/11 15:05:17;;;;;;;3.67;1.50;;;10.80;99.90;;;;;;6204329;28;20157;-82
2021/03/11 15:08:17;;;;;;;1.92;1.70;;;11.00;99.90;;;;;;6187952;28;20045;-84
2021/03/11 15:11:18;;;;;;;2.35;1.13;;;10.90;99.90;;;;;;6172004;28;20041;-85
2021/03/11 15:14:19;;;;;;;0.93;0.90;;;10.90;99.90;;;;;;6188745;28;20054;-86
2021/03/11 15:17:20;;;;;;;2.22;1.80;;;10.30;99.90;;;;;;6172165;28;20482;-83
2021/03/11 15:20:21;;;;;;;2.05;1.40;;;;;;;;;;6171229;28;20084;-85
2021/03/11 15:23:21;;;;;;;1.77;0.85;;;11.20;98.90;;;;;;6203966;28;20034;-86
2021/03/11 15:26:22;;;;;;;2.17;1.20;;;;;;;;;;6171658;28;20176;-84
2021/03/11 15:29:23;;;;;;;1.60;1.50;;;10.60;99.90;;;;;;6188345;28;20030;-89
2021/03/11 15:32:24;;;;;;;1.23;1.10;;;;;;;;;;6171581;28;20038;-88
2021/03/11 15:35:25;;;;;;;1.23;1.13;;;;;;;;;;6184788;28;20065;-86
2021/03/11 15:38:27;;;;;;;2.83;1.52;;;10.60;99.90;;;;;;6187370;28;20139;-86
2021/03/11 15:41:28;;;;;;;1.42;1.27;;;;;;;;;;6194378;28;20337;-86
2021/03/11 15:44:29;;;;;;;1.10;1.02;;;10.40;99.90;;;;;;6187403;28;20053;-85
2021/03/11 15:47:30;;;;;;;2.33;2.13;;;;;;;;;;6172040;28;20029;-86
2021/03/11 15:50:31;;;;;;;2.20;2.00;;;;;;;;;;6187827;28;20029;-91
2021/03/11 15:53:32;;;;;;;1.92;1.33;;;;;;;;;;6188476;28;20021;-89
2021/03/11 15:56:34;;;;;;;1.33;1.23;;;;;;;;;;6202848;28;20080;-88
2021/03/11 15:59:35;;;;;;;1.33;1.20;;;;;;;;;;6188328;28;20033;-87
2021/03/11 16:02:36;;;;;;;1.02;1.00;;;;;;;;;;6188852;28;20033;-89
2021/03/11 16:05:36;;;;;;;3.05;1.63;;;10.30;99.90;;;;;;6203462;28;20396;-82
2021/03/11 16:08:37;;;;;;;1.63;1.50;;;10.40;99.90;;;;;;6166377;28;20030;-87
2021/03/11 16:11:38;;;;;;;1.88;1.38;;;;;;;;;;6159873;28;20022;-83
2021/03/11 16:14:39;;;;;;;5.38;1.00;;;10.30;98.00;;;;;;6202188;28;20618;-84